Latest Coastal Weather Observations for Gabo Island (VIC)

IDN60701

Issued at 4:42 pm EDT Thursday 25 February 2021 (issued every 10 minutes, with the page automatically refreshed every 10 minutes)

About coastal observations | Map of coastal stations | Coastal observations for NSW | Marine services | Other Formats
Station Details ID: 084016 Name: GABO ISLAND LIGHTHOUSE Lat: -37.57 Lon: 149.92 Height: 15.0 m
Data from the previous 72 hours. | See also: Recent months at Gabo Island (VIC)
Date/Time
EDT
Wind Sea
Height
m
Swell Vis
km
Cloud Weather Temp
°C
Press
MSL
hPa
Rain since
9am
mm
Dir  Spd
kts
Gust
kts
Height
m
Period
s
Dir
25/04:30pm SSW 11 13 - - - - - - - 18.8 1007.1 0.2
25/04:00pm SW 11 13 - - - - - - - 19.4 1007.4 0.2
25/03:30pm SSW 9 11 - - - - - - - 19.9 1007.8 0.2
25/03:00pm SSW 12 15 1 1.5 11 E 30 Mostly cloudy Recent precip. 18.2 1008.3 0.2
25/02:30pm SSW 14 17 - - - - - - - 18.3 1008.8 0.0
25/02:00pm SSW 12 14 - - - - - - - 18.5 1009.1 0.0
25/01:30pm SSW 14 16 - - - - - - - 19.5 1009.2 0.0
25/01:00pm SSW 15 18 - - - - - - - 19.0 1009.6 0.0
25/12:30pm SSW 15 17 - - - - - - - 18.5 1009.8 0.0
25/12:00pm SSW 15 17 - - - - - - - 18.5 1009.9 0.0
25/11:30am SSW 15 17 - - - - - - - 18.2 1010.0 0.0
25/11:00am SSW 7 9 - - - - - - - 21.2 1009.9 0.0
25/10:30am NE 8 9 - - - - - - - 20.7 1009.7 0.0
25/10:00am NE 6 8 - - - - - - - 20.6 1009.8 0.0
25/09:30am NNE 7 9 - - - - - - - 20.0 1010.2 0.0
25/09:00am NNE 5 6 1 1.0 12 E 15 Partly cloudy Fine 19.6 1010.2 2.6
25/08:30am NE 7 8 - - - - - - - 18.9 1010.4 2.6
25/08:00am N 6 7 - - - - - - - 18.9 1010.6 2.6
25/07:30am NNW 6 7 - - - - - - - 18.2 1010.3 2.6
25/07:00am WNW 6 8 - - - - - - - 17.2 1010.2 2.6
25/06:30am WNW 7 8 - - - - - - - 17.6 1010.1 2.6
25/06:00am WNW 6 8 - - - - - - - 17.6 1010.2 2.6
25/05:30am NW 5 11 - - - - - - - 18.2 1010.4 2.2
25/05:00am NNE 11 13 - - - - - - - 18.8 1010.4 2.2
25/04:30am NE 13 17 - - - - - - - 18.8 1010.8 2.2
25/04:00am NE 15 17 - - - - - - - 19.0 1011.2 2.2
25/03:30am NE 17 20 - - - - - - - 19.1 1011.9 2.2
25/03:00am NE 16 19 1 1.0 12 E 40 Cloudy Fine 19.1 1012.3 2.0
25/02:30am NE 12 15 - - - - - - - 18.8 1012.9 2.0
25/02:00am NE 11 14 - - - - - - - 18.6 1013.9 2.0
25/01:30am NE 20 23 - - - - - - - 18.7 1014.3 2.0
25/01:00am NE 15 21 - - - - - - - 18.6 1014.9 2.0
25/12:59am NE 15 21 - - - - - - - 18.6 1014.9 2.0
25/12:30am NNE 16 22 - - - - - - - 18.2 1015.3 2.0
25/12:00am NE 17 21 - - - - - - - 18.8 1015.5 1.4
 
Date/Time
EDT
Wind Sea
Height
m
Swell Vis
km
Cloud Weather Temp
°C
Press
MSL
hPa
Rain since
9am
mm
Dir  Spd
kts
Gust
kts
Height
m
Period
s
Dir
24/11:30pm NE 18 23 - - - - - - - 18.4 1015.6 1.4
24/11:00pm NNE 16 20 - - - - - - - 18.1 1015.9 0.4
24/10:30pm NE 18 23 - - - - - - - 19.7 1015.9 0.0
24/10:00pm NE 19 24 - - - - - - - 19.5 1016.0 0.0
24/09:30pm NE 18 21 - - - - - - - 19.4 1016.2 0.0
24/09:00pm NNE 14 20 1 1.5 12 E 40 Cloudy Fine 19.4 1016.2 0.0
24/08:30pm NE 16 20 - - - - - - - 19.0 1016.4 0.0
24/08:00pm NE 16 19 - - - - - - - 19.2 1016.4 0.0
24/07:30pm NNE 15 19 - - - - - - - 19.0 1016.6 0.0
24/07:00pm NE 15 17 - - - - - - - 19.3 1016.6 0.0
24/06:30pm NE 14 16 - - - - - - - 19.2 1016.8 0.0
24/06:00pm NE 14 17 - - - - - - - 19.4 1016.9 0.0
24/05:30pm NE 17 20 - - - - - - - 19.9 1016.7 0.0
24/05:00pm NE 15 17 - - - - - - - 19.8 1017.0 0.0
24/04:30pm NE 16 18 - - - - - - - 20.2 1017.1 0.0
24/04:00pm NE 14 16 - - - - - - - 20.0 1017.7 0.0
24/03:30pm ENE 12 13 - - - - - - - 20.1 1018.2 0.0
24/03:00pm ENE 11 13 - - - - - - - 20.0 1018.8 0.0
24/02:30pm E 7 9 - - - - - - - 20.1 1019.3 0.0
24/02:00pm ESE 7 9 - - - - - - - 20.3 1019.6 0.0
24/01:30pm S 7 9 - - - - - - - 20.3 1020.0 0.0
24/01:00pm S 7 9 - - - - - - - 19.7 1020.3 0.0
24/12:30pm S 7 8 - - - - - - - 19.6 1020.7 0.0
24/12:00pm S 7 8 - - - - - - - 18.9 1021.1 0.0
24/11:30am SSW 6 8 - - - - - - - 18.3 1021.4 0.0
24/11:00am SW 7 8 - - - - - - - 17.9 1021.5 0.0
24/10:30am WSW 7 9 - - - - - - - 17.6 1021.5 0.0
24/10:00am W 7 9 - - - - - - - 17.5 1021.1 0.0
24/09:30am W 7 9 - - - - - - - 17.0 1020.9 0.0
24/09:00am W 7 8 1 1.5 12 E 40 Mostly cloudy Fine 16.4 1020.6 0.0
24/08:30am WNW 8 10 - - - - - - - 15.9 1020.6 0.0
24/08:00am WNW 8 11 - - - - - - - 14.7 1020.5 0.0
24/07:30am WNW 7 9 - - - - - - - 13.9 1020.1 0.0
24/07:00am NW 8 10 - - - - - - - 13.7 1020.0 0.0
24/06:30am WNW 8 10 - - - - - - - 13.4 1019.6 0.0
24/06:00am WNW 8 11 - - - - - - - 13.5 1019.5 0.0
24/05:30am NW 9 12 - - - - - - - 13.3 1019.4 0.0
24/05:00am NW 8 11 - - - - - - - 13.3 1019.2 0.0
24/04:30am NW 9 11 - - - - - - - 12.9 1019.1 0.0
24/04:00am NW 9 11 - - - - - - - 12.8 1019.0 0.0
24/03:30am WNW 8 11 - - - - - - - 13.0 1019.1 0.0
24/03:00am NW 8 11 1 1.0 8 S 40 Mostly clear Fine 13.3 1019.1 0.0
24/02:30am WNW 6 8 - - - - - - - 13.4 1019.2 0.0
24/02:00am W 10 13 - - - - - - - 14.1 1019.5 0.0
24/01:30am W 10 11 - - - - - - - 13.5 1019.9 0.0
24/01:00am WNW 8 10 - - - - - - - 13.5 1020.1 0.0
24/12:30am WNW 7 11 - - - - - - - 13.8 1020.2 0.0
24/12:00am W 13 16 - - - - - - - 15.2 1020.2 0.0
 
Date/Time
EDT
Wind Sea
Height
m
Swell Vis
km
Cloud Weather Temp
°C
Press
MSL
hPa
Rain since
9am
mm
Dir  Spd
kts
Gust
kts
Height
m
Period
s
Dir
23/11:30pm WSW 13 16 - - - - - - - 15.4 1020.0 0.0
23/11:00pm W 13 16 - - - - - - - 15.3 1020.0 0.0
23/10:30pm W 12 15 - - - - - - - 15.3 1020.0 0.0
23/10:00pm W 13 16 - - - - - - - 15.8 1019.9 0.0
23/09:30pm WSW 13 15 - - - - - - - 16.0 1019.6 0.0
23/09:00pm SW 15 18 1 1.5 8 S 40 Mostly clear Fine 16.8 1019.2 0.0
23/08:30pm SW 17 20 - - - - - - - 16.8 1018.9 0.0
23/08:00pm SW 17 20 - - - - - - - 17.0 1018.5 0.0
23/07:30pm SW 18 22 - - - - - - - 17.3 1018.1 0.0
23/07:00pm SW 19 22 - - - - - - - 17.5 1017.8 0.0
23/06:30pm SW 20 23 - - - - - - - 17.7 1017.7 0.0
23/06:00pm SW 21 25 - - - - - - - 17.8 1017.5 0.0
23/05:30pm SW 21 25 - - - - - - - 17.8 1017.4 0.0
23/05:00pm SW 21 26 - - - - - - - 17.7 1017.3 0.0
23/04:30pm SW 23 27 - - - - - - - 18.0 1017.1 0.0
23/04:00pm SW 25 30 - - - - - - - 18.2 1016.9 0.0
23/03:30pm SW 24 30 - - - - - - - 18.2 1016.9 0.0
23/03:00pm SW 25 29 2 2.0 6 SW 30 Mostly cloudy Fine 17.6 1017.0 0.0
23/02:30pm SW 27 32 - - - - - - - 17.7 1016.8 0.0
23/02:00pm SW 27 34 - - - - - - - 17.6 1016.7 0.0
23/01:30pm SW 26 33 - - - - - - - 17.0 1016.4 0.0
23/01:00pm SW 27 33 - - - - - - - 17.0 1016.3 0.0
23/12:30pm SW 27 32 - - - - - - - 16.8 1016.3 0.0
23/12:00pm WSW 28 33 - - - - - - - 16.8 1016.3 0.0
23/11:30am SW 29 34 - - - - - - - 16.4 1016.2 0.0
23/11:00am SW 29 36 - - - - - - - 16.8 1016.0 0.0
23/10:30am SW 30 36 - - - - - - - 16.7 1015.4 0.0
23/10:00am SW 28 35 - - - - - - - 16.7 1014.9 0.0
23/09:30am SW 32 39 - - - - - - - 16.6 1014.2 0.0
23/09:00am SW 30 41 2 2.0 6 SW 25 Mostly cloudy Fine 16.9 1013.8 0.0
23/08:59am SW 31 41 - - - - - - - 17.0 1013.8 0.0
23/08:30am SW 32 39 - - - - - - - 16.8 1013.5 0.0
23/08:00am WSW 28 35 - - - - - - - 16.2 1013.3 0.0
23/07:30am WSW 27 33 - - - - - - - 16.0 1012.9 0.0
23/07:00am WSW 26 32 - - - - - - - 15.8 1012.4 0.0
23/06:30am WSW 29 36 - - - - - - - 15.9 1012.0 0.0
23/06:00am WSW 30 39 - - - - - - - 16.0 1011.7 0.0
23/05:30am WSW 29 36 - - - - - - - 16.1 1011.4 0.0
23/05:01am WSW 28 38 - - - - - - - 16.3 1011.3 0.0
23/05:00am WSW 29 38 - - - - - - - 16.3 1011.2 0.0
23/04:34am WSW 28 38 - - - - - - - 16.4 1011.1 0.0
23/04:30am WSW 29 38 - - - - - - - 16.4 1011.1 0.0
23/04:00am WSW 29 37 - - - - - - - 16.5 1011.0 0.0
23/03:30am WSW 30 37 - - - - - - - 16.6 1010.7 0.0
23/03:11am WSW 31 41 - - - - - - - 16.6 1010.7 0.0
23/03:00am WSW 32 39 2 2.0 10 E 25 Mostly cloudy Fine 16.8 1010.7 0.0
23/02:30am SW 29 38 - - - - - - - 16.8 1010.5 0.0
23/02:00am WSW 29 36 - - - - - - - 16.9 1010.7 0.0
23/01:30am SW 31 37 - - - - - - - 17.1 1011.0 0.0
23/01:00am SW 29 36 - - - - - - - 17.3 1011.2 0.0
23/12:30am SW 28 34 - - - - - - - 17.4 1011.3 0.0
23/12:00am SW 30 36 - - - - - - - 17.5 1011.2 0.0
 
Date/Time
EDT
Wind Sea
Height
m
Swell Vis
km
Cloud Weather Temp
°C
Press
MSL
hPa
Rain since
9am
mm
Dir  Spd
kts
Gust
kts
Height
m
Period
s
Dir
22/11:30pm WSW 25 31 - - - - - - - 17.4 1011.2 0.0
22/11:00pm WSW 26 32 - - - - - - - 17.6 1011.3 0.0
22/10:30pm SW 25 30 - - - - - - - 17.5 1011.5 0.0
22/10:00pm SW 23 29 - - - - - - - 17.2 1011.4 0.0
22/09:42pm SW 25 35 - - - - - - - 17.2 1011.4 0.0
22/09:30pm SW 25 29 - - - - - - - 18.0 1011.2 0.0
22/09:00pm SW 21 24 1 2.0 10 E 40 Partly cloudy Fine 17.9 1011.0 0.0
22/08:30pm SW 21 26 - - - - - - - 18.0 1010.6 0.0
22/08:00pm SW 23 27 - - - - - - - 18.1 1010.2 0.0
22/07:30pm SW 22 25 - - - - - - - 18.3 1010.0 0.0
22/07:00pm SW 23 28 - - - - - - - 18.3 1009.7 0.0
22/06:30pm SW 23 29 - - - - - - - 18.5 1009.4 0.0
22/06:00pm SW 24 30 - - - - - - - 18.9 1009.2 0.0
22/05:30pm SW 23 28 - - - - - - - 19.0 1009.3 0.0
22/05:00pm SW 24 28 - - - - - - - 19.1 1009.1 0.0

Other formats

Comma delimited format used in spreadsheet applications
http://www.bom.gov.au/fwo/IDN60701/IDN60701.94933.axf

JavaScript Object Notation format (JSON) in row-major order
http://www.bom.gov.au/fwo/IDN60701/IDN60701.94933.json

Data quality

Most of these data are generated automatically and are frequently updated. Quality checks on data are not normally performed. It is possible for incorrect values to appear. Refer to information at About Latest Weather Observations and please check the disclaimer before using these data.